createdAt,value
2019-03-15T00:02:29.031Z,5.83
2019-03-15T00:04:59.559Z,3.40
2019-03-15T00:07:32.246Z,5.13
2019-03-15T00:10:05.619Z,3.17
2019-03-15T00:12:37.286Z,4.00
2019-03-15T00:15:09.977Z,4.87
2019-03-15T00:17:40.497Z,3.93
2019-03-15T00:20:12.261Z,4.53
2019-03-15T00:22:43.708Z,4.10
2019-03-15T00:25:15.470Z,4.13
2019-03-15T00:27:46.000Z,3.63
2019-03-15T00:30:16.532Z,3.60
2019-03-15T00:32:47.053Z,5.83
2019-03-15T00:35:18.815Z,4.00
2019-03-15T00:37:50.574Z,3.03
2019-03-15T00:40:25.395Z,3.53
2019-03-15T00:42:57.158Z,3.70
2019-03-15T00:45:28.614Z,3.90
2019-03-15T00:48:00.069Z,3.47
2019-03-15T00:50:30.605Z,4.53
2019-03-15T00:53:01.129Z,4.30
2019-03-15T00:55:32.581Z,4.70
2019-03-15T00:58:03.107Z,4.67
2019-03-15T01:00:33.411Z,3.40
2019-03-15T01:03:05.088Z,4.20
2019-03-15T01:05:37.465Z,3.60
2019-03-15T01:08:09.827Z,3.90
2019-03-15T01:10:41.289Z,4.73
2019-03-15T01:13:12.734Z,4.37
2019-03-15T01:15:44.496Z,3.37
2019-03-15T01:18:15.948Z,4.10
2019-03-15T01:20:47.402Z,3.37
2019-03-15T01:23:17.637Z,4.20
2019-03-15T01:25:49.070Z,3.53
2019-03-15T01:28:20.527Z,4.00
2019-03-15T01:30:51.054Z,3.60
2019-03-15T01:33:22.533Z,4.23
2019-03-15T01:35:53.957Z,4.07
2019-03-15T01:38:25.406Z,3.80
2019-03-15T01:40:56.872Z,5.50
2019-03-15T01:43:27.390Z,3.93
2019-03-15T01:45:58.843Z,3.20
2019-03-15T01:48:30.293Z,3.93
2019-03-15T01:51:01.735Z,4.27
2019-03-15T01:53:33.188Z,4.40
2019-03-15T01:56:04.644Z,3.90
2019-03-15T01:58:36.088Z,4.60
2019-03-15T02:01:07.551Z,5.53
2019-03-15T02:03:37.796Z,3.90
2019-03-15T02:06:08.297Z,4.27
2019-03-15T02:08:38.532Z,4.87
2019-03-15T02:11:09.979Z,4.30
2019-03-15T02:13:41.453Z,4.77
2019-03-15T02:16:11.650Z,4.83
2019-03-15T02:18:43.092Z,4.67
2019-03-15T02:21:14.544Z,4.80
2019-03-15T02:23:44.775Z,5.33
2019-03-15T02:26:15.304Z,4.90
2019-03-15T02:28:46.757Z,5.13
2019-03-15T02:31:17.288Z,4.30
2019-03-15T02:33:48.747Z,6.10
2019-03-15T02:36:20.816Z,4.50
2019-03-15T02:38:52.523Z,4.80
2019-03-15T02:41:25.548Z,4.43
2019-03-15T02:43:57.007Z,6.30
2019-03-15T02:46:28.756Z,5.90
2019-03-15T02:49:00.202Z,4.63
2019-03-15T02:51:31.966Z,4.03
2019-03-15T02:54:03.451Z,4.43
2019-03-15T02:56:33.662Z,4.33
2019-03-15T02:59:05.084Z,4.27
2019-03-15T03:01:35.330Z,4.83
2019-03-15T03:04:05.839Z,4.83
2019-03-15T03:06:37.298Z,4.50
2019-03-15T03:09:09.037Z,4.47
2019-03-15T03:11:40.507Z,3.70
2019-03-15T03:14:10.745Z,3.23
2019-03-15T03:16:42.189Z,3.37
2019-03-15T03:19:12.702Z,3.87
2019-03-15T03:21:44.186Z,4.00
2019-03-15T03:24:15.610Z,3.67
2019-03-15T03:26:49.211Z,3.20
2019-03-15T03:29:20.670Z,3.10
2019-03-15T03:31:52.140Z,3.00
2019-03-15T03:34:23.563Z,3.97
2019-03-15T03:36:57.841Z,3.30
2019-03-15T03:39:28.623Z,2.50
2019-03-15T03:42:00.075Z,2.50
2019-03-15T03:44:31.514Z,2.27
2019-03-15T03:47:02.127Z,2.10
2019-03-15T03:49:32.581Z,3.20
2019-03-15T03:52:02.838Z,3.17
2019-03-15T03:54:33.324Z,2.80
2019-03-15T03:57:04.785Z,3.30
2019-03-15T03:59:35.019Z,2.83
2019-03-15T04:02:05.551Z,2.33
2019-03-15T04:04:35.840Z,3.13
2019-03-15T04:07:06.289Z,2.97
2019-03-15T04:09:37.738Z,1.83
2019-03-15T04:12:09.199Z,2.37
2019-03-15T04:14:40.646Z,2.77
2019-03-15T04:17:13.015Z,2.40
2019-03-15T04:19:44.462Z,2.10
2019-03-15T04:22:16.230Z,2.23
2019-03-15T04:24:47.975Z,2.40
2019-03-15T04:27:19.736Z,1.80
2019-03-15T04:29:52.416Z,2.10
2019-03-15T04:32:23.888Z,1.80
2019-03-15T04:34:54.397Z,2.13
2019-03-15T04:37:25.854Z,1.53
2019-03-15T04:39:56.387Z,1.90
2019-03-15T04:42:26.907Z,1.97
2019-03-15T04:45:53.025Z,1.43
2019-03-15T04:48:42.332Z,1.50
2019-03-15T04:51:12.839Z,1.60
2019-03-15T04:53:44.312Z,1.63
2019-03-15T04:56:14.822Z,1.60
2019-03-15T04:58:46.598Z,1.80
2019-03-15T05:01:17.110Z,1.90
2019-03-15T05:03:48.895Z,1.50
2019-03-15T05:06:19.409Z,1.73
2019-03-15T05:08:50.868Z,2.30
2019-03-15T05:11:21.381Z,2.20
2019-03-15T05:13:52.848Z,1.93
2019-03-15T05:16:23.362Z,2.00
2019-03-15T05:18:54.814Z,1.90
2019-03-15T05:21:26.268Z,1.60
2019-03-15T05:23:57.724Z,0.90
2019-03-15T05:26:28.246Z,1.50
2019-03-15T05:28:58.820Z,1.83
2019-03-15T05:31:31.145Z,1.40
2019-03-15T05:34:04.628Z,2.13
2019-03-15T05:36:34.981Z,1.20
2019-03-15T05:39:06.890Z,1.70
2019-03-15T05:41:37.268Z,1.67
2019-03-15T05:44:08.401Z,1.70
2019-03-15T05:46:40.167Z,1.70
2019-03-15T05:49:11.612Z,1.97
2019-03-15T05:51:43.078Z,2.63
2019-03-15T05:54:13.596Z,1.80
2019-03-15T05:56:45.065Z,1.70
2019-03-15T05:59:15.584Z,1.97
2019-03-15T06:01:47.044Z,1.77
2019-03-15T06:04:17.578Z,2.43
2019-03-15T06:06:48.128Z,2.60
2019-03-15T06:09:18.655Z,2.30
2019-03-15T06:11:49.171Z,2.37
2019-03-15T06:14:19.684Z,1.70
2019-03-15T06:16:50.228Z,1.90
2019-03-15T06:19:20.740Z,3.40
2019-03-15T06:21:52.240Z,2.30
2019-03-15T06:24:22.734Z,2.83
2019-03-15T06:26:53.281Z,2.23
2019-03-15T06:29:23.789Z,3.10
2019-03-15T06:31:54.965Z,3.20
2019-03-15T06:34:25.465Z,3.60
2019-03-15T06:36:56.014Z,5.90
2019-03-15T06:39:27.746Z,3.27
2019-03-15T06:41:58.331Z,2.93
2019-03-15T06:44:28.817Z,1.80
2019-03-15T06:47:00.284Z,3.33
2019-03-15T06:49:30.815Z,3.63
2019-03-15T06:52:01.358Z,2.70
2019-03-15T06:54:32.153Z,2.27
2019-03-15T06:57:02.713Z,2.80
2019-03-15T06:59:33.233Z,3.73
2019-03-15T07:02:03.777Z,4.93
2019-03-15T07:04:34.287Z,3.30
2019-03-15T07:07:04.833Z,3.17
2019-03-15T07:09:35.359Z,2.77
2019-03-15T07:12:09.693Z,2.00
2019-03-15T07:14:39.174Z,2.20
2019-03-15T07:17:11.964Z,2.20
2019-03-15T07:19:45.314Z,2.07
2019-03-15T07:22:15.680Z,1.40
2019-03-15T07:24:47.130Z,2.47
2019-03-15T07:27:17.658Z,3.77
2019-03-15T07:29:49.119Z,4.60
2019-03-15T07:32:20.288Z,4.37
2019-03-15T07:35:05.234Z,3.77
2019-03-15T07:37:48.686Z,3.33
2019-03-15T07:40:24.277Z,4.27
2019-03-15T07:42:55.934Z,5.10
2019-03-15T07:45:34.912Z,4.45
2019-03-15T07:48:21.708Z,9.27
2019-03-15T07:50:42.821Z,6.00
2019-03-15T07:53:13.350Z,6.40
2019-03-15T07:55:58.716Z,5.90
2019-03-15T07:58:30.378Z,2.20
2019-03-15T08:01:00.945Z,3.60
2019-03-15T08:03:31.430Z,2.30
2019-03-15T08:06:01.993Z,5.90
2019-03-15T08:08:32.407Z,2.17
2019-03-15T08:11:03.346Z,2.70
2019-03-15T08:13:33.854Z,4.47
2019-03-15T08:16:04.369Z,2.90
2019-03-15T08:18:35.859Z,3.37
2019-03-15T08:21:06.350Z,3.70
2019-03-15T08:23:38.442Z,3.60
2019-03-15T08:26:08.958Z,2.57
2019-03-15T08:28:39.495Z,3.60
2019-03-15T08:31:10.006Z,3.17
2019-03-15T08:33:40.553Z,2.20
2019-03-15T08:36:11.093Z,2.53
2019-03-15T08:38:47.701Z,4.70
2019-03-15T08:41:14.588Z,5.37
2019-03-15T08:43:46.120Z,2.53
2019-03-15T08:46:17.793Z,4.20
2019-03-15T08:48:48.332Z,3.67
2019-03-15T08:51:18.859Z,3.80
2019-03-15T08:53:50.312Z,2.70
2019-03-15T08:56:21.652Z,3.53
2019-03-15T08:58:54.742Z,3.20
2019-03-15T09:01:29.498Z,3.22
2019-03-15T09:04:01.048Z,1.62
2019-03-15T09:06:31.569Z,2.20
2019-03-15T09:09:02.107Z,3.20
2019-03-15T09:11:32.915Z,3.67
2019-03-15T09:14:03.452Z,3.10
2019-03-15T09:16:33.976Z,2.35
2019-03-15T09:19:04.516Z,2.87
2019-03-15T09:21:35.062Z,2.22
2019-03-15T09:24:05.580Z,1.60
2019-03-15T09:26:36.101Z,1.65
2019-03-15T09:29:06.628Z,2.60
2019-03-15T09:31:47.841Z,1.80
2019-03-15T09:34:09.265Z,1.72
2019-03-15T09:36:50.186Z,1.52
2019-03-15T09:39:13.978Z,2.80
2019-03-15T09:41:46.133Z,2.37
2019-03-15T09:44:16.582Z,2.40
2019-03-15T09:46:47.098Z,2.95
2019-03-15T09:49:18.565Z,4.40
2019-03-15T09:51:49.095Z,4.00
2019-03-15T09:54:20.904Z,3.37
2019-03-15T09:56:52.599Z,2.15
2019-03-15T09:59:23.133Z,1.50
2019-03-15T10:01:53.667Z,1.98
2019-03-15T10:04:24.200Z,2.58
2019-03-15T10:06:54.748Z,2.75
2019-03-15T10:09:25.254Z,3.00
2019-03-15T10:11:56.627Z,1.25
2019-03-15T10:14:27.608Z,1.02
2019-03-15T10:16:58.061Z,1.77
2019-03-15T10:19:35.803Z,1.20
2019-03-15T10:22:08.334Z,2.35
2019-03-15T10:24:38.580Z,2.22
2019-03-15T10:27:09.082Z,2.17
2019-03-15T10:29:42.397Z,3.10
2019-03-15T10:32:17.084Z,2.92
2019-03-15T10:34:50.232Z,2.70
2019-03-15T10:37:23.986Z,2.52
2019-03-15T10:39:54.325Z,2.80
2019-03-15T10:42:26.203Z,2.20
2019-03-15T10:44:58.215Z,1.32
2019-03-15T10:47:29.598Z,1.20
2019-03-15T10:50:03.300Z,3.65
2019-03-15T10:52:34.962Z,1.47
2019-03-15T10:55:06.534Z,3.17
2019-03-15T10:57:41.969Z,3.62
2019-03-15T11:00:18.308Z,1.72
2019-03-15T11:02:51.089Z,1.90
2019-03-15T11:05:21.746Z,2.50
2019-03-15T11:07:56.501Z,2.20
2019-03-15T11:10:31.816Z,2.27
2019-03-15T11:13:03.785Z,1.50
2019-03-15T11:15:39.063Z,2.50
2019-03-15T11:18:09.445Z,3.25
2019-03-15T11:20:39.968Z,4.90
2019-03-15T11:23:11.940Z,4.15
2019-03-15T11:25:42.266Z,13.68
2019-03-15T11:28:12.793Z,1.65
2019-03-15T11:30:44.389Z,3.10
2019-03-15T11:33:14.775Z,5.60
2019-03-15T11:35:45.315Z,1.72
2019-03-15T11:38:22.466Z,1.52
2019-03-15T11:40:54.483Z,2.10
2019-03-15T11:43:25.029Z,1.12
2019-03-15T11:45:57.579Z,1.47
2019-03-15T11:48:31.217Z,0.78
2019-03-15T11:51:07.531Z,2.10
2019-03-15T11:53:38.981Z,2.25
2019-03-15T11:56:09.508Z,2.50
2019-03-15T11:58:42.376Z,3.92
2019-03-15T12:01:12.718Z,5.25
2019-03-15T12:03:53.071Z,2.30
2019-03-15T12:06:18.433Z,3.10
2019-03-15T12:08:51.085Z,3.75
2019-03-15T12:11:21.602Z,2.83
2019-03-15T12:13:52.122Z,2.27
2019-03-15T12:16:22.667Z,2.47
2019-03-15T12:18:53.201Z,3.37
2019-03-15T12:21:23.747Z,2.98
2019-03-15T12:23:54.275Z,8.65
2019-03-15T12:26:25.492Z,5.00
2019-03-15T12:28:59.634Z,2.30
2019-03-15T12:31:35.622Z,4.78
2019-03-15T12:34:07.585Z,7.37
2019-03-15T12:36:37.974Z,2.70
2019-03-15T12:39:11.856Z,2.22
2019-03-15T12:41:42.950Z,3.20
2019-03-15T12:44:14.773Z,1.85
2019-03-15T12:46:45.305Z,2.83
2019-03-15T12:49:15.984Z,2.70
2019-03-15T12:51:46.389Z,2.92
2019-03-15T12:54:16.899Z,3.15
2019-03-15T12:56:53.673Z,3.05
2019-03-15T12:59:20.742Z,2.75
2019-03-15T13:01:55.273Z,2.47
2019-03-15T13:04:25.785Z,3.83
2019-03-15T13:06:56.346Z,2.67
2019-03-15T13:09:26.987Z,3.33
2019-03-15T13:11:57.407Z,4.03
2019-03-15T13:14:27.908Z,2.40
2019-03-15T13:16:59.332Z,4.12
2019-03-15T13:19:34.013Z,2.25
2019-03-15T13:22:06.595Z,3.20
2019-03-15T13:24:37.061Z,2.72
2019-03-15T13:27:08.071Z,3.15
2019-03-15T13:29:38.710Z,4.37
2019-03-15T13:32:09.689Z,2.70
2019-03-15T13:34:41.082Z,3.55
2019-03-15T13:37:13.251Z,3.52
2019-03-15T13:39:43.662Z,2.95
2019-03-15T13:42:14.268Z,17.75
2019-03-15T13:44:45.327Z,3.90
2019-03-15T13:47:16.916Z,5.45
2019-03-15T13:49:49.136Z,4.35
2019-03-15T13:52:22.054Z,4.85
2019-03-15T13:54:52.454Z,3.52
2019-03-15T13:57:27.922Z,69.22
2019-03-15T13:59:58.672Z,26.27
2019-03-15T14:02:30.065Z,16.12
2019-03-15T14:05:04.180Z,8.05
2019-03-15T14:07:37.306Z,9.15
2019-03-15T14:10:11.258Z,6.35
2019-03-15T14:12:41.731Z,15.23
2019-03-15T14:15:14.570Z,6.20
2019-03-15T14:17:45.288Z,5.85
2019-03-15T14:20:16.690Z,6.92
2019-03-15T14:22:48.555Z,5.37
2019-03-15T14:25:26.595Z,6.03
2019-03-15T14:27:58.760Z,5.85
2019-03-15T14:30:30.362Z,4.33
2019-03-15T14:33:03.215Z,8.13
2019-03-15T14:35:33.736Z,10.15
2019-03-15T14:38:05.024Z,6.53
2019-03-15T14:40:36.671Z,5.58
2019-03-15T14:43:08.295Z,8.60
2019-03-15T14:45:39.040Z,6.67
2019-03-15T14:48:09.463Z,6.17
2019-03-15T14:50:41.286Z,6.58
2019-03-15T14:53:13.383Z,5.08
2019-03-15T14:55:43.729Z,6.22
2019-03-15T14:58:14.084Z,6.97
2019-03-15T15:00:46.530Z,4.30
2019-03-15T15:03:19.182Z,10.30
2019-03-15T15:05:54.940Z,9.30
2019-03-15T15:08:25.297Z,7.30
2019-03-15T15:10:55.658Z,7.92
2019-03-15T15:13:26.120Z,7.47
2019-03-15T15:15:57.659Z,6.47
2019-03-15T15:18:30.449Z,9.20
2019-03-15T15:21:00.818Z,7.37
2019-03-15T15:23:34.501Z,5.58
2019-03-15T15:26:03.564Z,24.70
2019-03-15T15:28:35.118Z,12.15
2019-03-15T15:31:06.432Z,18.45
2019-03-15T15:33:36.796Z,15.32
2019-03-15T15:36:07.361Z,9.48
2019-03-15T15:38:37.693Z,9.93
2019-03-15T15:41:08.040Z,24.98
2019-03-15T15:43:39.650Z,16.02
2019-03-15T15:46:10.046Z,50.43
2019-03-15T15:48:40.325Z,55.98
2019-03-15T15:51:10.783Z,55.03
2019-03-15T15:53:41.156Z,25.90
2019-03-15T15:56:11.594Z,27.20
2019-03-15T15:58:42.094Z,26.97
2019-03-15T16:01:12.643Z,26.80
2019-03-15T16:03:42.991Z,24.52
2019-03-15T16:06:13.332Z,37.58
2019-03-15T16:08:43.705Z,31.75
2019-03-15T16:11:14.098Z,34.40
2019-03-15T16:13:44.399Z,30.35
2019-03-15T16:16:15.013Z,26.60
2019-03-15T16:18:45.723Z,24.25
2019-03-15T16:21:17.274Z,28.85
2019-03-15T16:23:47.664Z,21.55
2019-03-15T16:26:17.976Z,72.08
2019-03-15T16:28:48.448Z,22.25
2019-03-15T16:31:18.795Z,16.73
2019-03-15T16:33:49.142Z,16.57
2019-03-15T16:36:23.708Z,13.32
2019-03-15T16:38:54.062Z,10.10
2019-03-15T16:41:24.501Z,9.35
2019-03-15T16:43:54.843Z,12.50
2019-03-15T16:46:25.217Z,17.60
2019-03-15T16:48:55.598Z,15.03
2019-03-15T16:51:25.955Z,17.52
2019-03-15T16:53:56.292Z,15.40
2019-03-15T16:56:26.619Z,9.48
2019-03-15T16:58:56.959Z,10.05
2019-03-15T17:01:27.291Z,12.05
2019-03-15T17:03:57.638Z,28.42
2019-03-15T17:06:27.974Z,23.52
2019-03-15T17:08:58.327Z,15.03
2019-03-15T17:11:28.594Z,12.35
2019-03-15T17:13:59.557Z,14.25
2019-03-15T17:16:29.927Z,8.03
2019-03-15T17:19:00.267Z,12.23
2019-03-15T17:21:30.801Z,9.23
2019-03-15T17:24:01.161Z,11.20
2019-03-15T17:26:31.601Z,11.20
2019-03-15T17:29:02.036Z,13.32
2019-03-15T17:31:32.574Z,11.70
2019-03-15T17:34:02.937Z,14.63
2019-03-15T17:36:35.160Z,13.83
2019-03-15T17:39:07.106Z,12.37
2019-03-15T17:41:37.852Z,11.48
2019-03-15T17:44:08.138Z,14.67
2019-03-15T17:46:39.540Z,12.03
2019-03-15T17:49:09.893Z,13.83
2019-03-15T17:51:40.231Z,13.23
2019-03-15T17:54:12.226Z,14.60
2019-03-15T17:56:42.561Z,18.00
2019-03-15T17:59:13.047Z,13.13
2019-03-15T18:01:43.623Z,14.30
2019-03-15T18:04:14.001Z,12.50
2019-03-15T18:06:44.635Z,11.00
2019-03-15T18:09:14.985Z,7.80
2019-03-15T18:11:45.314Z,8.90
2019-03-15T18:14:15.952Z,9.83
2019-03-15T18:16:47.389Z,12.33
2019-03-15T18:19:18.315Z,33.80
2019-03-15T18:21:48.562Z,18.77
2019-03-15T18:24:18.934Z,25.70
2019-03-15T18:26:49.476Z,12.57
2019-03-15T18:29:26.359Z,37.75
2019-03-15T18:31:51.849Z,14.00
2019-03-15T18:34:23.838Z,11.65
2019-03-15T18:36:55.267Z,8.30
2019-03-15T18:39:25.552Z,8.73
2019-03-15T18:41:56.008Z,6.23
2019-03-15T18:44:27.490Z,6.30
2019-03-15T18:46:58.007Z,5.03
2019-03-15T18:49:28.659Z,7.13
2019-03-15T18:51:58.990Z,9.30
2019-03-15T18:54:29.361Z,8.78
2019-03-15T18:56:59.695Z,6.03
2019-03-15T18:59:39.200Z,8.93
2019-03-15T19:02:02.059Z,9.37
2019-03-15T19:04:32.407Z,12.53
2019-03-15T19:07:02.775Z,8.03
2019-03-15T19:09:33.134Z,6.27
2019-03-15T19:12:03.624Z,9.45
2019-03-15T19:14:34.849Z,10.97
2019-03-15T19:17:06.810Z,11.03
2019-03-15T19:19:37.948Z,8.50
2019-03-15T19:22:10.511Z,6.20
2019-03-15T19:24:42.128Z,12.87
2019-03-15T19:27:12.627Z,8.50
2019-03-15T19:29:53.099Z,8.78
2019-03-15T19:32:19.096Z,7.03
2019-03-15T19:34:51.153Z,9.60
2019-03-15T19:37:23.632Z,7.43
2019-03-15T19:39:54.158Z,9.00
2019-03-15T19:42:24.713Z,9.53
2019-03-15T19:44:55.255Z,13.47
2019-03-15T19:47:25.774Z,10.37
2019-03-15T19:49:58.252Z,8.53
2019-03-15T19:52:29.914Z,12.07
2019-03-15T19:55:00.957Z,11.67
2019-03-15T19:57:33.765Z,11.07
2019-03-15T20:00:08.675Z,11.93
2019-03-15T20:02:41.247Z,10.80
2019-03-15T20:05:11.763Z,12.88
2019-03-15T20:07:42.394Z,8.40
2019-03-15T20:10:16.496Z,8.50
2019-03-15T20:12:46.227Z,6.00
2019-03-15T20:15:20.187Z,9.43
2019-03-15T20:17:52.216Z,11.43
2019-03-15T20:20:22.987Z,6.57
2019-03-15T20:22:58.176Z,7.33
2019-03-15T20:25:31.375Z,4.53
2019-03-15T20:28:04.095Z,5.07
2019-03-15T20:30:36.627Z,6.00
2019-03-15T20:33:11.637Z,4.53
2019-03-15T20:35:45.143Z,5.17
2019-03-15T20:38:16.779Z,2.60
2019-03-15T20:40:47.437Z,3.85
2019-03-15T20:43:24.613Z,4.17
2019-03-15T20:46:04.619Z,7.40
2019-03-15T20:48:40.379Z,4.60
2019-03-15T20:51:13.547Z,14.30
2019-03-15T20:53:44.448Z,8.47
2019-03-15T20:56:18.326Z,6.13
2019-03-15T20:58:51.319Z,5.83
2019-03-15T21:01:22.565Z,4.57
2019-03-15T21:03:57.525Z,9.20
2019-03-15T21:06:29.458Z,5.60
2019-03-15T21:09:10.704Z,5.97
2019-03-15T21:11:43.687Z,5.03
2019-03-15T21:14:18.103Z,2.60
2019-03-15T21:16:52.999Z,3.00
2019-03-15T21:19:25.125Z,2.47
2019-03-15T21:21:57.432Z,3.50
2019-03-15T21:24:30.806Z,2.70
2019-03-15T21:27:01.241Z,1.70
2019-03-15T21:29:34.788Z,2.80
2019-03-15T21:32:07.884Z,1.97
2019-03-15T21:34:42.329Z,1.43
2019-03-15T21:37:15.759Z,2.33
2019-03-15T21:39:51.362Z,1.97
2019-03-15T21:42:26.818Z,1.40
2019-03-15T21:44:59.309Z,2.70
2019-03-15T21:47:32.846Z,1.73
2019-03-15T21:50:05.952Z,2.07
2019-03-15T21:52:42.647Z,2.40
2019-03-15T21:55:16.141Z,1.17
2019-03-15T21:57:52.156Z,2.33
2019-03-15T22:00:26.696Z,2.30
2019-03-15T22:03:05.617Z,1.77
2019-03-15T22:05:49.792Z,2.30
2019-03-15T22:08:34.650Z,2.50
2019-03-15T22:11:21.159Z,2.70
2019-03-15T22:13:58.118Z,3.10
2019-03-15T22:16:31.327Z,3.43
2019-03-15T22:19:07.810Z,4.20
2019-03-15T22:21:38.369Z,3.13
2019-03-15T22:24:14.025Z,2.40
2019-03-15T22:26:53.088Z,1.43
2019-03-15T22:29:30.845Z,2.07
2019-03-15T22:32:02.299Z,1.60
2019-03-15T22:34:32.613Z,3.43
2019-03-15T22:37:05.291Z,3.90
2019-03-15T22:39:35.803Z,2.77
2019-03-15T22:42:06.322Z,3.13
2019-03-15T22:44:41.931Z,1.83
2019-03-15T22:47:19.407Z,2.00
2019-03-15T22:49:50.970Z,2.20
2019-03-15T22:52:21.289Z,1.83
2019-03-15T22:54:51.609Z,1.43
2019-03-15T22:57:23.629Z,1.70
2019-03-15T22:59:53.954Z,1.30
2019-03-15T23:02:25.288Z,1.03
2019-03-15T23:04:55.821Z,1.47
2019-03-15T23:07:26.178Z,1.87
2019-03-15T23:10:00.894Z,1.53
2019-03-15T23:12:35.972Z,1.20
2019-03-15T23:15:08.915Z,1.00
2019-03-15T23:17:41.047Z,1.37
2019-03-15T23:20:12.917Z,1.57
2019-03-15T23:22:43.166Z,1.97
2019-03-15T23:25:13.484Z,2.00
2019-03-15T23:27:43.792Z,1.10
2019-03-15T23:30:15.376Z,1.03
2019-03-15T23:32:46.870Z,1.00
2019-03-15T23:35:17.119Z,1.30
2019-03-15T23:37:47.352Z,1.20
2019-03-15T23:40:18.584Z,2.20
2019-03-15T23:42:49.095Z,1.77
2019-03-15T23:45:19.409Z,1.40
2019-03-15T23:47:49.931Z,1.27
2019-03-15T23:50:21.513Z,1.13
2019-03-15T23:52:51.921Z,1.40
2019-03-15T23:55:23.676Z,1.27
2019-03-15T23:57:54.189Z,1.80
